Time;durP1;ratioP1;P1;durP2;ratioP2;P2;SDS_P1;SDS_P2;PMS_P1;PMS_P2;Temp;Humidity;BMP_temperature;BMP_pressure;BME280_temperature;BME280_humidity;BME280_pressure;Samples;Min_cycle;Max_cycle;Signal;HPM_P1;HPM_P2
2022/06/05 00:00:26;;;;;;;9.07;8.10;;;;;;;17.34;73.54;93676.97;5029693;28;20027;-41
2022/06/05 00:03:17;;;;;;;15.32;9.15;;;;;;;17.34;74.00;93674.16;5029974;28;20053;-41
2022/06/05 00:05:53;;;;;;;11.85;9.05;;;;;;;17.36;73.45;93681.94;5029117;28;20442;-41
2022/06/05 00:08:40;;;;;;;10.82;9.07;;;;;;;17.35;74.14;93675.63;5030020;28;20037;-41
2022/06/05 00:11:07;;;;;;;10.90;9.15;;;;;;;17.05;75.35;93672.69;5029934;28;20277;-39
2022/06/05 00:13:36;;;;;;;13.30;8.82;;;;;;;17.22;74.96;93669.75;5030988;28;20083;-41
2022/06/05 00:16:01;;;;;;;;;;;;;;;17.28;74.59;93665.34;5034815;28;20029;-42
2022/06/05 00:18:26;;;;;;;10.95;9.05;;;;;;;17.26;74.44;93664.47;5033869;28;20321;-42
2022/06/05 00:20:53;;;;;;;9.45;8.45;;;;;;;17.30;73.78;93662.69;5032579;28;20037;-42
2022/06/05 00:23:18;;;;;;;10.98;9.38;;;;;;;17.27;74.00;93658.31;5033805;28;20483;-41
2022/06/05 00:25:55;;;;;;;11.98;8.57;;;;;;;17.33;74.04;93663.56;5033792;28;20080;-42
2022/06/05 00:28:35;;;;;;;12.15;9.45;;;;;;;17.27;74.23;93663.16;5032891;28;20117;-42
2022/06/05 00:31:20;;;;;;;12.00;8.50;;;;;;;17.36;73.50;93660.38;5032392;28;20041;-40
2022/06/05 00:33:46;;;;;;;10.52;9.23;;;;;;;17.32;73.48;93662.13;5033668;28;20116;-41
2022/06/05 00:36:24;;;;;;;10.63;9.10;;;;;;;17.31;73.11;93663.44;5033566;28;20029;-41
2022/06/05 00:39:28;;;;;;;16.13;11.77;;;;;;;17.19;73.50;93668.88;5032349;28;20048;-42
2022/06/05 00:41:59;;;;;;;13.07;10.95;;;;;;;17.17;73.60;93668.72;5011281;28;20040;-42
2022/06/05 00:44:35;;;;;;;11.57;9.63;;;;;;;17.25;73.56;93679.75;5029485;28;20049;-39
2022/06/05 00:47:26;;;;;;;12.57;9.30;;;;;;;17.32;73.30;93673.28;5033416;28;20033;-40
2022/06/05 00:50:23;;;;;;;12.00;9.63;;;;;;;17.23;73.16;93676.81;5032423;28;20033;-40
2022/06/05 00:52:53;;;;;;;10.63;8.63;;;;;;;17.19;73.04;93674.47;5032080;28;20052;-41
2022/06/05 00:55:20;;;;;;;10.93;9.13;;;;;;;17.07;72.96;93681.19;5033185;28;20083;-40
2022/06/05 00:57:46;;;;;;;9.80;8.48;;;;;;;17.10;73.11;93688.41;5033111;28;20032;-39
2022/06/05 01:00:14;;;;;;;13.27;9.02;;;;;;;17.10;73.13;93680.03;5031606;28;20029;-41
2022/06/05 01:02:42;;;;;;;9.68;8.68;;;;;;;17.05;73.44;93678.25;5032995;28;20060;-39
2022/06/05 01:05:09;;;;;;;10.02;9.02;;;;;;;16.87;74.25;93677.63;5032106;28;20463;-40
2022/06/05 01:07:35;;;;;;;10.80;9.15;;;;;;;16.92;74.45;93684.25;5033245;28;20037;-39
2022/06/05 01:10:00;;;;;;;22.33;9.50;;;;;;;16.91;73.79;93677.97;5032918;28;20052;-40
2022/06/05 01:12:53;;;;;;;11.88;8.73;;;;;;;16.95;73.62;93683.84;5032796;28;20108;-40
2022/06/05 01:15:29;;;;;;;11.80;8.63;;;;;;;16.95;74.15;93678.25;5032830;28;20060;-38
2022/06/05 01:18:12;;;;;;;9.07;8.18;;;;;;;16.97;74.07;93686.03;5031720;28;20026;-41
2022/06/05 01:20:52;;;;;;;10.02;8.02;;;;;;;17.02;73.23;93676.66;5033036;28;20036;-41
2022/06/05 01:23:30;;;;;;;9.43;8.48;;;;;;;16.91;73.14;93677.22;5032598;28;20025;-42
2022/06/05 01:26:30;;;;;;;13.32;9.85;;;;;;;16.89;72.64;93679.88;5032577;28;20031;-40
2022/06/05 01:28:57;;;;;;;14.50;9.63;;;;;;;16.81;73.03;93679.97;5050115;28;20049;-38
2022/06/05 01:31:42;;;;;;;9.05;8.18;;;;;;;16.52;74.27;93676.41;5031204;28;20076;-41
2022/06/05 01:34:26;;;;;;;9.57;8.63;;;;;;;16.71;74.43;93670.88;5032538;28;20025;-38
2022/06/05 01:36:51;;;;;;;9.88;8.45;;;;;;;16.72;73.91;93679.97;5032808;28;20029;-37
2022/06/05 01:39:22;;;;;;;9.20;8.30;;;;;;;16.74;73.58;93683.63;5032648;28;20618;-36
2022/06/05 01:41:50;;;;;;;9.82;8.45;;;;;;;16.73;73.27;93668.22;5031479;28;20026;-40
2022/06/05 01:44:23;;;;;;;10.70;8.20;;;;;;;16.70;73.34;93668.69;5031064;28;20026;-37
2022/06/05 01:46:49;;;;;;;9.52;8.27;;;;;;;16.63;73.14;93665.41;5031465;28;20418;-40
2022/06/05 01:49:18;;;;;;;9.82;8.82;;;;;;;16.54;73.61;93668.94;5031263;28;20039;-38
2022/06/05 01:51:55;;;;;;;10.88;8.95;;;;;;;16.53;73.18;93659.09;5030897;28;20034;-38
2022/06/05 01:54:31;;;;;;;9.65;8.18;;;;;;;16.54;73.25;93668.94;5031240;28;20083;-38
2022/06/05 01:56:58;;;;;;;10.93;8.00;;;;;;;16.32;73.79;93675.56;5030974;28;20021;-39
2022/06/05 01:59:27;;;;;;;10.18;8.07;;;;;;;16.26;74.14;93680.69;5031417;28;20025;-40
2022/06/05 02:01:56;;;;;;;10.10;8.05;;;;;;;16.27;74.34;93673.78;5031879;28;20049;-41
2022/06/05 02:04:36;;;;;;;10.13;8.43;;;;;;;16.34;73.86;93680.56;5030729;28;20044;-40
2022/06/05 02:07:08;;;;;;;10.70;9.45;;;;;;;16.22;73.98;93669.22;5030994;28;20037;-41
2022/06/05 02:09:36;;;;;;;11.07;9.38;;;;;;;16.23;73.94;93667.16;5030922;28;20029;-38
2022/06/05 02:12:06;;;;;;;11.90;9.65;;;;;;;16.17;73.95;93670.25;5030864;28;20029;-41
2022/06/05 02:14:32;;;;;;;12.57;10.65;;;;;;;16.17;74.03;93675.81;5032076;28;20108;-38
2022/06/05 02:16:59;;;;;;;10.75;9.65;;;;;;;16.11;73.77;93653.06;5030536;28;20556;-38
2022/06/05 02:19:24;;;;;;;12.50;8.55;;;;;;;16.20;73.52;93669.06;5031574;28;20087;-41
2022/06/05 02:21:52;;;;;;;12.45;7.97;;;;;;;16.22;73.30;93669.22;5030664;28;20029;-40
2022/06/05 02:24:18;;;;;;;9.80;8.23;;;;;;;16.22;73.63;93660.16;5031399;28;20522;-42
2022/06/05 02:26:43;;;;;;;11.93;7.80;;;;;;;15.95;74.33;93662.94;5031782;28;20036;-40
2022/06/05 02:29:20;;;;;;;10.70;8.10;;;;;;;15.89;74.62;93660.44;5031469;28;20025;-38
2022/06/05 02:32:08;;;;;;;11.48;10.18;;;;;;;15.92;74.66;93662.06;5030095;28;20411;-40
2022/06/05 02:34:42;;;;;;;14.10;11.65;;;;;;;15.67;76.07;93653.13;5031387;28;20518;-41
2022/06/05 02:37:26;;;;;;;14.90;11.55;;;;;;;15.89;75.73;93654.13;5029645;28;20032;-41
2022/06/05 02:40:11;;;;;;;13.48;11.30;;;;;;;15.83;75.87;93648.81;5031577;28;20061;-41
2022/06/05 02:42:56;;;;;;;15.02;11.85;;;;;;;15.96;75.32;93650.47;5030062;28;20021;-39
2022/06/05 02:45:41;;;;;;;13.43;11.57;;;;;;;15.96;75.12;93656.06;5031495;28;20526;-38
2022/06/05 02:48:27;;;;;;;12.85;10.90;;;;;;;16.03;74.41;93649.63;5029950;28;20037;-37
2022/06/05 02:51:10;;;;;;;15.10;12.13;;;;;;;15.93;74.39;93651.66;5029767;28;20033;-38
2022/06/05 02:53:47;;;;;;;17.60;12.07;;;;;;;15.98;74.33;93650.66;5016796;28;20037;-36
2022/06/05 02:56:13;;;;;;;14.57;11.05;;;;;;;15.83;74.17;93650.88;5011571;28;20419;-36
2022/06/05 02:58:39;;;;;;;11.75;8.88;;;;;;;15.76;73.86;93640.59;5011438;28;20045;-37
2022/06/05 03:03:48;;;;;;;9.70;8.32;;;;;;;15.78;73.03;93652.63;5031124;28;20052;-39
2022/06/05 03:06:14;;;;;;;9.70;8.52;;;;;;;15.78;73.66;93646.31;5031093;28;20410;-37
2022/06/05 03:08:40;;;;;;;8.98;7.18;;;;;;;15.77;73.79;93645.56;5030975;28;20052;-39
2022/06/05 03:11:05;;;;;;;14.75;9.57;;;;;;;15.80;74.00;93647.19;5030967;28;20114;-39
2022/06/05 03:13:31;;;;;;;14.32;9.73;;;;;;;15.79;74.15;93642.19;5030645;28;20095;-39
2022/06/05 03:15:56;;;;;;;10.27;8.88;;;;;;;15.65;74.80;93646.66;5030947;28;20021;-38
2022/06/05 03:18:22;;;;;;;19.38;8.80;;;;;;;15.71;74.38;93649.94;5030737;28;20540;-39
2022/06/05 03:20:47;;;;;;;12.75;8.35;;;;;;;15.77;74.35;93644.81;5030527;28;20025;-39
2022/06/05 03:23:13;;;;;;;12.27;10.40;;;;;;;15.82;74.46;93654.97;5030937;28;20076;-41
2022/06/05 03:25:40;;;;;;;19.08;15.20;;;;;;;15.94;75.20;93656.63;5030462;28;20036;-38
2022/06/05 03:28:07;;;;;;;22.63;13.63;;;;;;;16.01;75.40;93654.31;5030718;28;20326;-38
2022/06/05 03:30:36;;;;;;;19.15;13.00;;;;;;;16.06;75.24;93654.06;5030674;28;20108;-37
2022/06/05 03:33:02;;;;;;;16.63;12.82;;;;;;;15.99;75.32;93654.91;5030303;28;20057;-37
2022/06/05 03:35:27;;;;;;;31.50;20.33;;;;;;;15.95;76.31;93660.16;5030405;28;20055;-36
2022/06/05 03:37:52;;;;;;;55.20;27.52;;;;;;;16.11;75.91;93653.06;5030358;28;20029;-41
2022/06/05 03:40:18;;;;;;;46.67;25.20;;;;;;;16.13;75.72;93655.25;5029897;28;20025;-39
2022/06/05 03:42:44;;;;;;;43.58;23.27;;;;;;;16.09;76.39;93660.53;5030601;28;20060;-40
2022/06/05 03:45:11;;;;;;;26.45;17.05;;;;;;;16.20;75.64;93662.78;5029994;28;20487;-41
2022/06/05 03:47:37;;;;;;;24.45;16.13;;;;;;;16.20;75.81;93657.22;5030309;28;20079;-41
2022/06/05 03:50:02;;;;;;;27.50;14.80;;;;;;;16.28;75.79;93657.81;5030452;28;20025;-41
2022/06/05 03:52:28;;;;;;;30.20;17.60;;;;;;;16.29;75.81;93665.59;5030013;28;20021;-39
2022/06/05 03:54:53;;;;;;;36.75;20.30;;;;;;;16.40;75.96;93672.66;5030150;28;20021;-40
2022/06/05 03:57:19;;;;;;;32.28;22.15;;;;;;;16.42;75.08;93665.19;5030029;28;20030;-40
2022/06/05 03:59:44;;;;;;;33.55;18.73;;;;;;;16.42;75.54;93673.53;5029476;28;20032;-40
2022/06/05 04:02:11;;;;;;;26.08;17.75;;;;;;;16.43;75.55;93669.47;5018326;28;20046;-41
2022/06/05 04:04:36;;;;;;;30.23;19.45;;;;;;;16.39;76.21;93668.41;5025167;28;20025;-41
2022/06/05 04:07:02;;;;;;;24.85;17.10;;;;;;;16.51;76.01;93664.50;5029989;28;20103;-41
2022/06/05 04:22:02;;;;;;;13.68;11.38;;;;;;;17.35;73.49;93655.34;5067330;28;20610;-33
2022/06/05 04:24:28;;;;;;;24.88;14.82;;;;;;;17.36;73.96;93648.47;5067329;28;20115;-34
2022/06/05 04:26:53;;;;;;;18.90;14.45;;;;;;;17.26;74.57;93662.41;5066914;28;20024;-34
2022/06/05 04:29:19;;;;;;;23.80;19.70;;;;;;;17.26;75.46;93667.28;5067433;28;20031;-34
2022/06/05 04:31:46;;;;;;;15.60;12.52;;;;;;;17.38;75.30;93665.34;5067238;28;20035;-34
2022/06/05 04:34:15;;;;;;;15.10;11.38;;;;;;;17.34;75.78;93665.81;5067099;28;20024;-34
2022/06/05 04:36:41;;;;;;;14.15;11.13;;;;;;;17.47;75.76;93661.09;5067110;28;20021;-34
2022/06/05 04:39:06;;;;;;;12.93;11.43;;;;;;;17.55;75.79;93661.69;5067062;28;20032;-34
2022/06/05 04:41:32;;;;;;;18.65;12.80;;;;;;;17.64;76.17;93655.34;5067054;28;20074;-33
2022/06/05 04:43:58;;;;;;;10.35;8.90;;;;;;;17.68;75.64;93655.63;5064706;28;20108;-33
2022/06/05 04:46:26;;;;;;;12.50;9.95;;;;;;;17.57;76.83;93651.41;5046907;28;20108;-34
2022/06/05 04:48:51;;;;;;;13.13;9.85;;;;;;;17.76;76.68;93651.34;5046888;28;20494;-33
2022/06/05 04:51:18;;;;;;;10.23;9.13;;;;;;;17.89;76.57;93647.34;5046801;28;20097;-33
2022/06/05 04:53:44;;;;;;;11.32;8.88;;;;;;;17.93;76.41;93640.00;5046842;28;20037;-34
2022/06/05 04:56:13;;;;;;;11.38;10.05;;;;;;;18.07;76.65;93657.00;5047008;28;20033;-34
2022/06/05 04:58:39;;;;;;;21.47;10.93;;;;;;;18.15;77.00;93652.72;5045602;28;20028;-34
2022/06/05 05:01:29;;;;;;;18.85;9.73;;;;;;;18.28;76.70;93659.88;5046985;28;20021;-34
2022/06/05 05:03:56;;;;;;;13.20;9.07;;;;;;;18.27;77.06;93655.63;5046948;28;20096;-34
2022/06/05 05:06:22;;;;;;;14.40;9.80;;;;;;;18.40;77.01;93657.19;5046913;28;20025;-35
2022/06/05 05:08:48;;;;;;;11.55;9.10;;;;;;;18.49;77.01;93650.84;5046506;28;20021;-34
2022/06/05 05:11:14;;;;;;;9.98;8.40;;;;;;;18.60;77.04;93656.50;5046682;28;20104;-35
2022/06/05 05:13:41;;;;;;;15.75;8.38;;;;;;;18.74;76.73;93665.13;5046736;28;20100;-34
2022/06/05 05:16:07;;;;;;;11.75;7.68;;;;;;;18.88;76.48;93663.28;5046743;28;20441;-34
2022/06/05 05:18:32;;;;;;;21.20;9.13;;;;;;;19.04;76.54;93669.94;5060177;28;20016;-34
2022/06/05 05:21:15;;;;;;;17.17;11.65;;;;;;;19.28;76.03;93670.81;5063354;28;20052;-34
2022/06/05 05:23:42;;;;;;;17.20;12.95;;;;;;;19.52;75.29;93669.59;5052923;28;20037;-35
2022/06/05 05:26:22;;;;;;;19.40;13.05;;;;;;;19.77;74.63;93674.72;5053114;28;20106;-35
2022/06/05 05:28:48;;;;;;;18.23;9.57;;;;;;;19.86;73.03;93665.47;5052878;28;20020;-35
2022/06/05 05:31:17;;;;;;;19.08;9.13;;;;;;;19.99;72.28;93674.03;5052756;28;20020;-35
2022/06/05 05:33:43;;;;;;;14.27;8.48;;;;;;;20.04;72.51;93680.63;5052801;28;20021;-36
2022/06/05 05:36:09;;;;;;;8.90;8.00;;;;;;;20.08;73.25;93680.88;5052961;28;20021;-35
2022/06/05 05:38:35;;;;;;;8.40;7.60;;;;;;;20.14;73.20;93678.47;5052658;28;20517;-35
2022/06/05 05:43:44;;;;;;;8.55;7.75;;;;;;;20.48;72.78;93688.28;5052630;28;20086;-36
2022/06/05 05:46:11;;;;;;;8.55;7.75;;;;;;;20.45;72.36;93664.25;5052495;28;20456;-35
2022/06/05 05:48:37;;;;;;;45.70;9.80;;;;;;;20.62;72.28;93673.03;5052489;28;20021;-35
2022/06/05 05:51:03;;;;;;;95.60;13.68;;;;;;;20.73;71.90;93674.38;5052347;28;20086;-36
2022/06/05 05:53:29;;;;;;;11.35;9.23;;;;;;;20.85;71.12;93675.84;5052337;28;20021;-36
2022/06/05 05:55:54;;;;;;;35.03;10.18;;;;;;;21.03;70.83;93676.19;5052344;28;20028;-36
2022/06/05 05:58:20;;;;;;;10.50;8.00;;;;;;;21.13;70.69;93682.44;5052536;28;20033;-36
2022/06/05 06:00:45;;;;;;;13.95;9.35;;;;;;;21.22;70.89;93684.38;5052330;28;20475;-36
2022/06/05 06:03:11;;;;;;;12.35;8.18;;;;;;;21.31;70.16;93682.75;5052475;28;20103;-35
2022/06/05 06:05:38;;;;;;;26.52;8.60;;;;;;;21.30;69.84;93681.28;5052510;28;20029;-36
2022/06/05 06:08:04;;;;;;;9.65;8.68;;;;;;;21.27;70.38;93683.25;5052101;28;20137;-35
2022/06/05 06:10:29;;;;;;;11.27;8.80;;;;;;;21.25;69.50;93688.75;5051955;28;20108;-36
2022/06/05 06:12:55;;;;;;;12.88;9.10;;;;;;;21.29;69.81;93682.66;5052106;28;20036;-36
2022/06/05 06:15:21;;;;;;;18.15;8.63;;;;;;;21.34;69.92;93687.13;5051970;28;20100;-36
2022/06/05 06:17:47;;;;;;;12.30;9.10;;;;;;;21.32;70.32;93678.59;5051972;28;20025;-36
2022/06/05 06:20:12;;;;;;;15.27;9.65;;;;;;;21.34;69.86;93673.09;5051318;28;20052;-35
2022/06/05 06:22:41;;;;;;;9.60;8.52;;;;;;;21.28;68.08;93683.97;5051888;28;20051;-36
2022/06/05 06:25:07;;;;;;;10.90;8.98;;;;;;;21.40;67.60;93679.78;5051801;28;20104;-35
2022/06/05 06:27:33;;;;;;;14.15;9.52;;;;;;;21.46;68.34;93679.41;5052052;28;20109;-36
2022/06/05 06:29:58;;;;;;;11.82;9.00;;;;;;;21.58;67.42;93671.69;5051616;28;20476;-35
2022/06/05 06:32:24;;;;;;;14.15;8.30;;;;;;;21.63;67.68;93671.31;5051610;28;20032;-36
2022/06/05 06:34:49;;;;;;;9.38;8.48;;;;;;;21.77;67.83;93669.28;5050954;28;20024;-36
2022/06/05 06:37:16;;;;;;;16.35;8.40;;;;;;;22.03;67.95;93660.84;5051556;28;20025;-36
2022/06/05 06:39:42;;;;;;;53.38;11.25;;;;;;;22.24;67.56;93661.34;5051803;28;20045;-36
2022/06/05 06:42:08;;;;;;;10.32;8.68;;;;;;;22.55;67.09;93663.69;5051436;28;20074;-36
2022/06/05 06:44:34;;;;;;;14.95;8.10;;;;;;;22.92;66.15;93657.91;5051702;28;20025;-36
2022/06/05 06:46:59;;;;;;;16.42;8.25;;;;;;;23.22;64.97;93659.47;5045050;28;20099;-36
2022/06/05 06:49:25;;;;;;;13.82;7.35;;;;;;;23.42;63.79;93659.78;5031337;28;20025;-36
2022/06/05 06:51:51;;;;;;;12.70;7.18;;;;;;;23.40;62.23;93663.22;5045098;28;20024;-36
2022/06/05 06:54:16;;;;;;;23.45;7.75;;;;;;;23.37;64.10;93655.31;5034567;28;20083;-35
2022/06/05 06:56:43;;;;;;;10.27;7.45;;;;;;;23.46;61.92;93660.72;5051323;28;20032;-35
2022/06/05 06:59:09;;;;;;;13.75;7.70;;;;;;;23.53;61.70;93670.94;5038111;28;20494;-34
2022/06/05 07:01:34;;;;;;;7.50;6.63;;;;;;;23.75;60.42;93666.38;5051104;28;20036;-34
2022/06/05 07:04:00;;;;;;;94.25;13.63;;;;;;;23.92;60.74;93659.44;5051304;28;20028;-34
2022/06/05 07:06:25;;;;;;;12.10;7.65;;;;;;;24.29;60.17;93664.72;5051034;28;20494;-35
2022/06/05 07:08:51;;;;;;;12.88;7.07;;;;;;;24.72;58.03;93665.31;5050897;28;20029;-35
2022/06/05 07:11:17;;;;;;;7.90;6.38;;;;;;;25.16;57.21;93664.47;5050730;28;20024;-32
2022/06/05 07:13:43;;;;;;;32.70;8.23;;;;;;;25.58;55.62;93657.81;5050844;28;20037;-42
2022/06/05 07:16:10;;;;;;;11.60;6.18;;;;;;;26.16;53.54;93667.97;5050248;28;20036;-42
2022/06/05 07:18:37;;;;;;;13.85;7.03;;;;;;;26.73;52.82;93659.59;5049824;28;20099;-40
2022/06/05 07:21:08;;;;;;;13.80;6.70;;;;;;;27.31;50.51;93640.44;5049616;28;20041;-38
2022/06/05 07:23:34;;;;;;;9.15;6.40;;;;;;;28.25;47.76;93665.59;5050794;28;20044;-40
2022/06/05 07:25:59;;;;;;;10.57;6.15;;;;;;;29.66;46.81;93658.38;5050286;28;20025;-41
2022/06/05 07:28:24;;;;;;;10.45;6.55;;;;;;;31.27;41.99;93651.50;5050077;28;20104;-41
2022/06/05 07:30:51;;;;;;;7.03;5.65;;;;;;;32.53;38.82;93652.38;5050528;28;20013;-41
2022/06/05 07:33:17;;;;;;;8.77;5.57;;;;;;;33.34;36.05;93653.50;5048695;28;20040;-40
2022/06/05 07:35:43;;;;;;;5.95;4.95;;;;;;;33.95;35.39;93649.91;5048985;28;20028;-42
2022/06/05 07:38:10;;;;;;;7.70;5.75;;;;;;;34.72;33.32;93648.44;5048577;28;20017;-41
2022/06/05 07:40:42;;;;;;;78.60;10.05;;;;;;;35.62;32.17;93639.59;5048891;28;20086;-40
2022/06/05 07:43:10;;;;;;;9.45;5.10;;;;;;;36.37;31.13;93636.84;5048751;28;20035;-41
2022/06/05 07:45:37;;;;;;;7.15;4.60;;;;;;;36.18;29.05;93641.88;5048680;28;20096;-41
2022/06/05 07:48:03;;;;;;;7.93;4.85;;;;;;;37.06;29.40;93631.75;5048653;28;20087;-41
2022/06/05 07:50:28;;;;;;;7.97;4.75;;;;;;;37.24;28.57;93641.09;5050508;28;20021;-40
2022/06/05 07:55:38;;;;;;;6.43;4.22;;;;;;;36.85;29.52;93631.09;5050580;28;20146;-40
2022/06/05 07:58:03;;;;;;;5.53;4.32;;;;;;;37.37;29.24;93624.50;5050470;28;20142;-40
2022/06/05 08:00:29;;;;;;;9.20;4.25;;;;;;;37.91;28.25;93629.28;5050220;28;20025;-38
2022/06/05 08:02:54;;;;;;;4.75;4.25;;;;;;;38.36;27.39;93618.91;5050412;28;20055;-39
2022/06/05 08:05:20;;;;;;;5.53;4.13;;;;;;;38.66;27.72;93620.81;5050119;28;20079;-42
2022/06/05 08:07:45;;;;;;;7.25;4.72;;;;;;;37.53;27.97;93615.06;5049986;28;20035;-39
2022/06/05 08:10:11;;;;;;;14.90;5.15;;;;;;;37.32;28.39;93617.28;5050236;28;20032;-41
2022/06/05 08:12:36;;;;;;;11.60;3.90;;;;;;;37.67;27.21;93612.81;5050365;28;20036;-39
2022/06/05 08:15:08;;;;;;;6.88;3.90;;;;;;;38.45;27.06;93619.53;5049967;28;20028;-38
2022/06/05 08:17:35;;;;;;;27.52;5.15;;;;;;;38.37;26.33;93620.34;5049969;28;20035;-39
2022/06/05 08:20:01;;;;;;;8.63;4.53;;;;;;;38.75;27.47;93624.38;5049257;28;20573;-41
2022/06/05 08:22:26;;;;;;;5.03;4.10;;;;;;;39.23;26.77;93610.16;5048808;28;20029;-41
2022/06/05 08:24:52;;;;;;;8.05;4.50;;;;;;;39.61;25.67;93614.06;5050207;28;20040;-40
2022/06/05 08:27:20;;;;;;;7.70;4.53;;;;;;;39.65;25.15;93616.91;5050185;28;20025;-40
2022/06/05 08:29:45;;;;;;;;;;;;;;;39.83;24.02;93614.47;5050411;28;20025;-40
2022/06/05 08:32:13;;;;;;;5.37;3.80;;;;;;;40.17;24.88;93616.19;5049802;28;19912;-38
2022/06/05 08:34:39;;;;;;;5.23;3.50;;;;;;;39.66;24.56;93619.03;5049827;28;20423;-41
2022/06/05 08:42:43;;;;;;;6.00;3.60;;;;;;;40.21;23.95;93615.41;5050094;28;20035;-40
2022/06/05 08:45:24;;;;;;;6.63;3.90;;;;;;;40.07;24.56;93607.66;5048501;28;20506;-40
2022/06/05 08:47:59;;;;;;;5.40;3.50;;;;;;;40.22;24.29;93616.84;5048876;28;20021;-39
2022/06/05 08:51:12;;;;;;;4.70;3.47;;;;;;;40.11;24.16;93616.28;5048389;28;20021;-41
2022/06/05 08:54:10;;;;;;;8.32;3.20;;;;;;;40.15;22.99;93610.44;5027419;28;20076;-41
2022/06/05 08:56:41;;;;;;;4.78;2.65;;;;;;;40.02;23.99;93606.28;5038244;28;20055;-40
2022/06/05 08:59:29;;;;;;;4.82;3.15;;;;;;;41.02;24.10;93603.22;5052061;28;20036;-40
2022/06/05 09:02:00;;;;;;;13.63;3.80;;;;;;;40.62;22.77;93607.53;5053130;28;20029;-42
2022/06/05 09:04:45;;;;;;;7.38;3.70;;;;;;;40.99;22.91;93604.72;5053244;28;20474;-40
2022/06/05 09:07:16;;;;;;;7.30;3.50;;;;;;;40.58;23.35;93596.00;5052083;28;20506;-41
2022/06/05 09:09:49;;;;;;;6.50;3.60;;;;;;;40.28;23.33;93597.22;5043771;28;20083;-41
2022/06/05 09:12:36;;;;;;;12.75;4.28;;;;;;;40.54;23.14;93596.09;5068184;28;20048;-41
2022/06/05 09:15:16;;;;;;;5.65;3.13;;;;;;;40.77;22.78;93600.03;5053134;28;20024;-39
2022/06/05 09:17:55;;;;;;;9.60;3.53;;;;;;;41.13;21.72;93592.88;5053364;28;20460;-41
2022/06/05 09:20:29;;;;;;;4.07;3.10;;;;;;;41.50;22.33;93593.59;5052709;28;20041;-38
2022/06/05 09:22:59;;;;;;;10.07;3.13;;;;;;;41.91;20.40;93587.66;5051837;28;20039;-39
2022/06/05 09:37:51;;;;;;;4.03;1.73;;;;;;;40.07;20.29;93596.78;5094986;27;20626;-43
2022/06/05 09:40:19;;;;;;;3.20;1.85;;;;;;;39.55;20.49;93591.00;5087888;28;20469;-41
2022/06/05 09:42:48;;;;;;;4.22;1.67;;;;;;;39.56;20.25;93592.44;5090268;28;20112;-35
2022/06/05 09:45:41;;;;;;;9.23;2.10;;;;;;;39.30;20.63;93591.31;5107654;28;20117;-37
2022/06/05 09:48:14;;;;;;;4.25;1.98;;;;;;;39.26;20.59;93584.84;5108393;28;20055;-37
2022/06/05 10:04:13;;;;;;;13.15;2.53;;;;;;;39.27;21.49;93581.22;5087525;27;20993;-38
2022/06/05 10:06:41;;;;;;;9.18;2.00;;;;;;;38.94;22.80;93579.44;5087744;28;20119;-42
2022/06/05 10:09:23;;;;;;;5.20;1.77;;;;;;;38.26;20.67;93577.88;5085571;28;20028;-39
2022/06/05 10:12:01;;;;;;;4.00;1.75;;;;;;;38.50;20.72;93566.84;5086555;28;20012;-36
2022/06/05 10:14:50;;;;;;;5.38;1.98;;;;;;;38.63;21.84;93576.09;5086139;28;20024;-48
2022/06/05 10:17:30;;;;;;;3.30;1.67;;;;;;;38.46;21.16;93580.59;5087351;28;20024;-43
2022/06/05 10:20:07;;;;;;;4.80;1.65;;;;;;;38.16;20.88;93580.84;5087259;28;20024;-43
2022/06/05 10:22:39;;;;;;;3.73;1.90;;;;;;;38.18;20.55;93581.53;5087297;28;20509;-44
2022/06/05 10:25:13;;;;;;;5.32;1.50;;;;;;;37.54;23.44;93576.16;5086129;28;20476;-39
2022/06/05 10:27:53;;;;;;;3.13;1.80;;;;;;;37.19;21.56;93582.06;5087115;28;20027;-40
2022/06/05 10:30:20;;;;;;;3.67;1.63;;;;;;;37.03;23.43;93576.38;5085969;28;20024;-40
2022/06/05 10:33:06;;;;;;;8.07;1.90;;;;;;;37.23;23.11;93559.00;5085724;28;20409;-34
2022/06/05 10:35:53;;;;;;;3.85;2.08;;;;;;;37.67;23.64;93563.13;5085877;28;20028;-38
2022/06/05 10:38:47;;;;;;;2.35;1.60;;;;;;;38.61;20.35;93573.97;5086091;28;20020;-35
2022/06/05 10:41:35;;;;;;;2.97;2.20;;;;;;;38.70;20.58;93563.09;5087226;28;20032;-38
2022/06/05 10:44:24;;;;;;;3.72;1.60;;;;;;;38.48;20.08;93558.22;5086950;28;20078;-36
2022/06/05 10:47:19;;;;;;;2.35;1.45;;;;;;;38.52;21.31;93569.72;5086008;28;20033;-44
2022/06/05 10:50:15;;;;;;;2.47;1.77;;;;;;;38.20;22.67;93569.25;5086838;28;20416;-38
2022/06/05 10:52:55;;;;;;;2.00;1.40;;;;;;;37.71;22.11;93557.31;5085497;28;20086;-47
2022/06/05 10:55:34;;;;;;;2.65;1.65;;;;;;;37.41;21.34;93557.50;5085526;28;20028;-39
2022/06/05 10:58:35;;;;;;;4.57;1.50;;;;;;;37.42;23.09;93547.44;5087029;28;20145;-38
2022/06/05 11:01:13;;;;;;;7.68;1.38;;;;;;;37.27;22.38;93549.66;5065682;28;20071;-40
2022/06/05 11:03:54;;;;;;;7.82;1.70;;;;;;;36.56;23.44;93536.91;5081408;28;20432;-38
2022/06/05 11:06:41;;;;;;;2.85;1.58;;;;;;;36.56;24.16;93552.00;5072093;28;20050;-34
2022/06/05 11:09:34;;;;;;;3.20;1.57;;;;;;;36.06;23.35;93547.00;5072924;28;20031;-42
2022/06/05 11:15:01;;;;;;;5.72;1.80;;;;;;;35.32;26.47;93550.47;5071929;28;20038;-46
2022/06/05 11:17:43;;;;;;;6.88;2.25;;;;;;;35.29;25.80;93537.53;5071591;28;20524;-49
2022/06/05 11:20:21;;;;;;;4.63;1.75;;;;;;;35.56;27.21;93547.66;5072694;28;20028;-45
2022/06/05 11:22:58;;;;;;;2.97;1.83;;;;;;;35.04;25.22;93550.38;5071475;28;20021;-49
2022/06/05 11:25:27;;;;;;;10.68;2.13;;;;;;;34.93;26.08;93535.22;5071657;28;20032;-46
2022/06/05 11:28:21;;;;;;;4.32;1.85;;;;;;;34.29;26.71;93549.91;5071487;28;20032;-44
2022/06/05 11:30:49;;;;;;;4.65;1.60;;;;;;;33.97;27.75;93548.91;5061417;28;20017;-47
2022/06/05 11:33:18;;;;;;;;;;;;;;;34.03;28.56;93543.25;5052686;28;20020;-46
2022/06/05 11:35:46;;;;;;;;;;;;;;;33.85;29.49;93551.69;5066257;28;19916;-49
2022/06/05 11:38:28;;;;;;;3.55;1.77;;;;;;;33.50;31.50;93547.78;5071239;28;19940;-46
2022/06/05 11:41:18;;;;;;;6.70;2.03;;;;;;;33.60;29.39;93542.16;5068065;28;20043;-48
2022/06/05 11:43:44;;;;;;;6.28;2.38;;;;;;;33.53;30.66;93549.25;5097194;28;20102;-46
2022/06/05 11:46:30;;;;;;;6.90;2.10;;;;;;;33.24;28.43;93536.06;5050980;28;20456;-46
2022/06/05 11:49:01;;;;;;;4.38;2.20;;;;;;;32.89;29.24;93547.09;5064767;28;20013;-48
2022/06/05 11:51:36;;;;;;;3.38;1.90;;;;;;;32.89;29.61;93543.50;5072302;28;20054;-49
2022/06/05 11:54:15;;;;;;;3.75;2.10;;;;;;;32.81;30.99;93549.81;5072457;28;20575;-48
2022/06/05 11:56:53;;;;;;;4.15;1.80;;;;;;;32.78;29.31;93545.53;5070930;28;20016;-45
2022/06/05 11:59:27;;;;;;;6.00;2.30;;;;;;;32.59;32.39;93532.41;5072356;28;20024;-50
2022/06/05 12:02:08;;;;;;;3.47;2.22;;;;;;;32.49;29.60;93540.84;5070496;28;20408;-46
2022/06/05 12:04:50;;;;;;;4.75;1.73;;;;;;;32.37;30.76;93534.22;5071903;28;20048;-46
2022/06/05 12:07:17;;;;;;;24.23;3.22;;;;;;;32.15;28.55;93541.06;5071760;28;20102;-46
2022/06/05 12:09:55;;;;;;;3.28;1.60;;;;;;;31.85;29.98;93517.00;5070549;28;20021;-46
2022/06/05 12:12:31;;;;;;;8.27;2.17;;;;;;;31.83;32.28;93531.97;5067439;28;20017;-45
2022/06/05 12:15:16;;;;;;;4.50;2.15;;;;;;;31.84;32.70;93532.66;5062217;28;20044;-47
2022/06/05 12:17:51;;;;;;;7.47;2.03;;;;;;;31.67;32.05;93511.72;5070655;28;20104;-46
2022/06/05 12:20:41;;;;;;;3.35;2.05;;;;;;;31.92;34.79;93522.09;5069915;28;20025;-46
2022/06/05 12:23:25;;;;;;;4.18;2.00;;;;;;;31.72;32.48;93527.50;5070883;28;20025;-45
2022/06/05 12:25:55;;;;;;;4.45;2.13;;;;;;;31.54;31.77;93526.47;5071458;28;20077;-42
2022/06/05 12:28:32;;;;;;;4.93;1.60;;;;;;;31.42;29.96;93513.44;5070502;28;20428;-44
2022/06/05 12:31:13;;;;;;;3.95;2.00;;;;;;;31.45;31.02;93513.50;5071597;28;20503;-44
2022/06/05 12:33:58;;;;;;;7.68;2.38;;;;;;;31.36;32.60;93526.88;5069679;28;20554;-45
2022/06/05 12:36:45;;;;;;;2.47;1.50;;;;;;;31.42;34.52;93521.28;5070345;28;20449;-40
2022/06/05 12:39:41;;;;;;;5.53;2.35;;;;;;;31.52;33.04;93517.88;5071497;28;20414;-37
2022/06/05 12:42:16;;;;;;;22.83;2.70;;;;;;;31.58;34.77;93515.13;5069174;28;20120;-44
2022/06/05 12:44:47;;;;;;;6.82;2.00;;;;;;;31.75;36.17;93508.28;5069843;28;20547;-44
2022/06/05 12:47:39;;;;;;;3.67;1.63;;;;;;;31.92;33.74;93510.66;5071377;28;20036;-47